FRSO2: Muddy Boggy Cr, Farris, OK

Data processed at Tue May 31 23:39:16 2016 Central Daylight Time


All information presented herein is the property of the government of the United States of America and may be revised or deleted at any time without prior notice.
Dissemination of this information without the expressed written consent of the Public Affairs Office, Tulsa District U.S. Army Corps of Engineers is strictly prohibited.
These data are gathered electronically and, as presented, have not undergone any form of quality control. These data are not guaranteed to be valid or correct.
Go to home page.
Go to station list.
Go to station map.

Upstream stations:

Downstream station: Previous Day
Next Day
Current Day

Display graphics.
Display DCP transmissions.


    
    SHEF ID:       FRSO2     Muddy Boggy Cr, Farris, OK
    STATION TYPE:  STREAM GAGE
    Regulation Limits:  Stage =   43.00, Flow =   23000
    
                   PRECIP PRECIP(2)     STAGE  RIV-FLOW  BAT-LOAD
                   INCHES    INCHES      FEET       CFS     VOLTS
                     GOES      GOES      GOES      GOES      GOES
       (Cen)
    05/31 01:00      0.00      0.00     19.56      2769     12.17
    05/31 02:00      0.00      0.00     19.57      2774     12.17
    05/31 03:00      0.00      0.00     19.57      2774     12.17
    05/31 04:00      0.00      0.00     19.55      2765     12.17
    05/31 05:00      0.00      0.00     19.55      2765     12.17
    05/31 06:00      0.00      0.00     19.55      2765     12.17
    05/31 07:00      0.00      0.00     19.54      2760     12.17
    05/31 08:00      0.00      0.00     19.51      2747     12.17
    05/31 09:00      0.00      0.00     19.50      2743     12.17
    05/31 10:00      0.00      0.00     19.49      2738     12.17
    05/31 11:00      0.00      0.00     19.47      2730     12.17
    05/31 12:00      0.00      0.00     19.46      2725     12.17
    05/31 13:00      0.00      0.00     19.46      2725     12.25
    05/31 14:00      0.00      0.00     19.47      2730     12.17
    05/31 15:00      0.65      0.64     19.55      2765     12.17
    05/31 16:00      0.03      0.03     19.61      2791     12.17
    05/31 17:00      0.05      0.05     19.65      2809     12.17
    05/31 18:00      0.00      0.00     19.79      2872     12.17
    05/31 19:00      0.00      0.00     20.01      2969     12.17
    05/31 20:00      0.01      0.01     20.41      3147     12.17
    05/31 21:00      0.00      0.00     20.80      3322     12.17
    05/31 22:00      0.00      0.00     21.22      3518     12.17
    05/31 23:00      0.00      0.00     21.59      3691     12.17
    06/01 00:00      ----      ----      ----      ----      ----